Time;durP1;ratioP1;P1;durP2;ratioP2;P2;SDS_P1;SDS_P2;PMS_P1;PMS_P2;Temp;Humidity;BMP_temperature;BMP_pressure;BME280_temperature;BME280_humidity;BME280_pressure;Samples;Min_cycle;Max_cycle;Signal;HPM_P1;HPM_P2
2022/11/16 00:02:12;;;;;;;10.02;1.38;;;19.80;43.40;;;;;;5008888;28;20478;-64
2022/11/16 00:04:40;;;;;;;12.57;1.77;;;19.70;43.70;;;;;;5013357;28;20650;-64
2022/11/16 00:07:08;;;;;;;17.77;1.95;;;19.50;44.90;;;;;;5005133;28;20037;-66
2022/11/16 00:09:36;;;;;;;3.42;0.77;;;19.40;45.90;;;;;;5007886;28;20034;-67
2022/11/16 00:12:06;;;;;;;2.42;0.50;;;19.80;47.40;;;;;;5008466;28;20038;-65
2022/11/16 00:14:35;;;;;;;5.35;0.77;;;20.20;44.70;;;;;;5010687;28;20030;-65
2022/11/16 00:17:03;;;;;;;2.15;0.40;;;20.30;44.40;;;;;;5017964;28;20035;-65
2022/11/16 00:19:31;;;;;;;2.33;0.90;;;20.60;44.40;;;;;;5003610;28;20073;-67
2022/11/16 00:21:58;;;;;;;3.33;0.60;;;20.90;43.80;;;;;;5004083;28;20057;-67
2022/11/16 00:24:26;;;;;;;3.38;1.00;;;21.10;42.40;;;;;;5003336;28;20037;-66
2022/11/16 00:26:55;;;;;;;2.55;0.75;;;21.30;43.00;;;;;;5003182;28;20030;-66
2022/11/16 00:29:24;;;;;;;4.82;0.80;;;21.60;41.80;;;;;;5004269;28;20030;-65
2022/11/16 00:31:53;;;;;;;2.97;0.60;;;21.90;41.90;;;;;;5006014;28;20099;-66
2022/11/16 00:34:21;;;;;;;4.30;0.95;;;21.80;42.30;;;;;;5005741;28;20390;-66
2022/11/16 00:36:49;;;;;;;0.82;0.50;;;21.90;42.30;;;;;;5008056;28;20644;-65
2022/11/16 00:39:17;;;;;;;2.28;0.52;;;22.00;42.10;;;;;;5002102;28;20431;-65
2022/11/16 00:41:45;;;;;;;14.18;0.93;;;22.10;42.70;;;;;;5001086;28;20521;-65
2022/11/16 00:44:13;;;;;;;4.85;0.70;;;22.30;41.90;;;;;;5006966;28;20040;-65
2022/11/16 00:46:41;;;;;;;11.55;1.00;;;22.00;41.40;;;;;;5010855;28;20040;-65
2022/11/16 00:49:09;;;;;;;3.38;0.63;;;22.20;40.10;;;;;;5020945;28;20109;-65
2022/11/16 00:51:36;;;;;;;8.00;0.77;;;21.80;38.60;;;;;;5013493;28;20018;-65
2022/11/16 00:54:06;;;;;;;6.55;0.95;;;21.40;38.60;;;;;;5004311;28;20030;-65
2022/11/16 00:56:33;;;;;;;15.98;1.40;;;21.10;40.00;;;;;;5006442;28;20029;-65
2022/11/16 00:59:01;;;;;;;5.68;1.65;;;21.00;40.30;;;;;;5003229;28;20097;-66
2022/11/16 01:01:28;;;;;;;2.28;0.80;;;21.10;39.90;;;;;;5007198;28;20026;-65
2022/11/16 01:03:56;;;;;;;5.05;0.90;;;20.90;39.70;;;;;;5022277;28;20478;-66
2022/11/16 01:06:23;;;;;;;4.70;1.52;;;21.10;41.10;;;;;;5003346;28;20026;-65
2022/11/16 01:08:51;;;;;;;4.47;1.40;;;21.00;41.20;;;;;;5007104;28;20030;-65
2022/11/16 01:14:06;;;;;;;6.07;0.70;;;21.00;41.80;;;;;;5014413;28;20129;-67
2022/11/16 01:16:34;;;;;;;2.92;0.70;;;21.10;41.80;;;;;;5006816;28;20029;-66
2022/11/16 01:19:02;;;;;;;7.10;1.02;;;20.80;41.60;;;;;;5010429;28;20061;-67
2022/11/16 01:21:29;;;;;;;8.63;0.70;;;20.70;41.40;;;;;;5020536;28;20033;-67
2022/11/16 01:23:56;;;;;;;6.82;0.80;;;20.50;40.80;;;;;;5006297;28;20044;-67
2022/11/16 01:26:26;;;;;;;7.90;1.30;;;20.70;40.30;;;;;;5006461;28;20026;-67
2022/11/16 01:28:57;;;;;;;5.72;0.90;;;20.50;40.50;;;;;;5016993;28;20747;-67
2022/11/16 01:31:25;;;;;;;5.35;0.55;;;20.20;40.90;;;;;;5000885;28;20051;-67
2022/11/16 01:33:53;;;;;;;4.40;0.75;;;20.20;41.40;;;;;;5005689;28;20022;-67
2022/11/16 01:36:21;;;;;;;3.70;0.63;;;20.40;43.30;;;;;;5000415;28;20364;-65
2022/11/16 01:38:49;;;;;;;1.63;0.60;;;20.60;42.50;;;;;;5000154;28;20079;-67
2022/11/16 01:41:21;;;;;;;4.53;0.60;;;21.30;43.60;;;;;;5008651;28;20022;-66
2022/11/16 01:43:52;;;;;;;1.45;0.55;;;21.90;40.70;;;;;;5016818;28;20064;-68
2022/11/16 01:46:20;;;;;;;2.25;0.68;;;22.50;42.20;;;;;;5005786;28;20079;-67
2022/11/16 01:48:50;;;;;;;3.40;0.80;;;23.10;43.30;;;;;;5012211;28;20022;-70
2022/11/16 01:51:18;;;;;;;5.40;0.93;;;23.60;40.10;;;;;;5006425;28;20048;-68
2022/11/16 01:53:45;;;;;;;1.02;0.30;;;23.90;40.30;;;;;;5002026;28;20461;-69
2022/11/16 01:56:13;;;;;;;4.60;0.75;;;24.20;40.00;;;;;;5007046;28;20021;-67
2022/11/16 01:58:44;;;;;;;2.53;0.60;;;24.00;39.40;;;;;;5012037;28;20052;-66
2022/11/16 02:01:12;;;;;;;5.18;0.93;;;23.60;37.60;;;;;;5007220;28;20026;-67
2022/11/16 02:03:39;;;;;;;3.85;1.05;;;23.40;39.50;;;;;;5013861;28;20072;-66
2022/11/16 02:06:19;;;;;;;8.55;0.90;;;22.80;38.50;;;;;;5000839;28;20367;-67
2022/11/16 02:12:27;;;;;;;4.47;0.70;;;22.30;41.30;;;;;;5004288;28;20137;-66
2022/11/16 02:15:08;;;;;;;3.28;0.50;;;22.10;40.80;;;;;;5004948;28;20029;-68
2022/11/16 02:17:55;;;;;;;2.75;0.70;;;21.60;41.30;;;;;;5006034;28;20542;-69
2022/11/16 02:21:04;;;;;;;1.33;0.50;;;21.80;43.40;;;;;;5003911;28;20037;-68
2022/11/16 02:24:01;;;;;;;0.80;0.40;;;22.60;41.80;;;;;;4994996;28;20074;-68
2022/11/16 02:26:56;;;;;;;1.02;0.50;;;23.20;40.70;;;;;;5015537;28;20040;-67
2022/11/16 02:29:43;;;;;;;3.63;0.40;;;23.50;38.60;;;;;;5023598;28;20470;-66
2022/11/16 02:32:22;;;;;;;35.47;2.88;;;23.20;39.90;;;;;;5013008;28;20033;-67
2022/11/16 02:35:02;;;;;;;27.20;2.47;;;21.80;42.10;;;;;;5016317;28;20034;-72
2022/11/16 02:37:33;;;;;;;33.50;3.83;;;19.80;47.10;;;;;;5012020;28;20422;-71
2022/11/16 02:40:05;;;;;;;19.00;1.50;;;18.60;50.60;;;;;;5004593;28;20026;-72
2022/11/16 02:43:00;;;;;;;16.85;1.13;;;18.00;52.80;;;;;;5016573;28;20052;-71
2022/11/16 02:45:32;;;;;;;18.63;2.80;;;17.20;54.20;;;;;;5007859;28;20521;-72
2022/11/16 02:48:08;;;;;;;10.27;0.70;;;16.70;54.80;;;;;;5010731;28;20067;-71
2022/11/16 02:50:36;;;;;;;3.30;0.80;;;16.30;56.30;;;;;;5016655;28;20063;-71
2022/11/16 02:53:04;;;;;;;11.60;1.30;;;16.10;59.10;;;;;;5024694;28;20053;-69
2022/11/16 02:55:34;;;;;;;10.20;1.05;;;16.20;59.50;;;;;;5010924;28;20018;-70
2022/11/16 02:58:06;;;;;;;31.80;1.90;;;16.40;57.90;;;;;;5020550;28;20026;-70
2022/11/16 03:00:42;;;;;;;11.15;1.08;;;16.70;57.80;;;;;;5010192;28;20030;-70
2022/11/16 03:03:21;;;;;;;23.15;1.48;;;16.70;57.40;;;;;;5013744;28;20029;-69
2022/11/16 03:05:56;;;;;;;6.85;0.60;;;16.80;57.20;;;;;;5005788;28;20497;-69
2022/11/16 03:08:56;;;;;;;8.30;0.50;;;16.40;57.80;;;;;;5015879;28;20418;-69
2022/11/16 03:14:17;;;;;;;3.15;0.32;;;15.90;57.60;;;;;;5009089;28;20503;-70
2022/11/16 03:16:48;;;;;;;4.32;1.15;;;15.80;59.30;;;;;;5007308;28;20100;-69
2022/11/16 03:19:25;;;;;;;6.03;1.58;;;15.70;59.60;;;;;;5012095;28;20033;-69
2022/11/16 03:22:06;;;;;;;6.22;0.65;;;15.70;63.10;;;;;;5013405;28;20034;-69
2022/11/16 03:24:34;;;;;;;3.00;0.40;;;15.40;67.10;;;;;;5022231;28;20030;-71
2022/11/16 03:27:13;;;;;;;0.22;0.22;;;15.10;69.50;;;;;;5010713;28;20022;-70
2022/11/16 03:30:22;;;;;;;3.22;0.22;;;15.00;68.20;;;;;;5025504;28;20052;-70
2022/11/16 03:32:56;;;;;;;1.35;0.30;;;15.00;63.80;;;;;;5005063;28;20049;-70
2022/11/16 03:35:28;;;;;;;5.55;0.30;;;15.30;64.40;;;;;;5010937;28;20030;-70
2022/11/16 03:37:58;;;;;;;3.70;0.20;;;15.60;60.70;;;;;;5008461;28;20034;-70
2022/11/16 03:40:29;;;;;;;1.52;0.50;;;15.80;58.30;;;;;;5017481;28;20017;-68
2022/11/16 03:42:59;;;;;;;1.27;0.30;;;16.20;57.50;;;;;;4999144;28;20088;-68
2022/11/16 03:45:27;;;;;;;6.13;0.55;;;17.00;56.70;;;;;;5006858;28;20028;-67
2022/11/16 03:47:54;;;;;;;2.53;0.47;;;17.20;52.60;;;;;;5016638;28;20029;-68
2022/11/16 03:50:22;;;;;;;6.78;0.77;;;17.10;52.40;;;;;;5008823;28;20014;-68
2022/11/16 03:52:49;;;;;;;2.92;0.40;;;17.20;53.50;;;;;;5006755;28;20030;-68
2022/11/16 03:55:17;;;;;;;4.88;0.57;;;17.30;53.30;;;;;;5006419;28;20030;-67
2022/11/16 03:57:44;;;;;;;6.35;0.82;;;17.30;56.10;;;;;;5015223;28;20025;-68
2022/11/16 04:00:12;;;;;;;5.50;0.75;;;17.70;56.40;;;;;;5011993;28;20037;-68
2022/11/16 04:02:40;;;;;;;4.78;0.35;;;18.30;55.10;;;;;;5013053;28;20021;-69
2022/11/16 04:24:52;;;;;;;1.50;0.30;;;17.80;49.00;;;;;;5008386;28;20556;-67
2022/11/16 04:39:00;;;;;;;7.63;0.98;;;18.00;45.90;;;;;;5006560;28;20050;-67
2022/11/16 04:44:19;;;;;;;6.63;0.70;;;17.90;46.10;;;;;;4993898;28;20129;-68
2022/11/16 04:49:32;;;;;;;0.95;0.30;;;17.80;47.00;;;;;;5004104;28;20048;-68
2022/11/16 04:51:59;;;;;;;0.63;0.30;;;17.80;47.90;;;;;;5011650;28;20224;-68
2022/11/16 04:54:26;;;;;;;3.72;1.20;;;18.10;47.70;;;;;;5014182;28;20390;-68
2022/11/16 04:56:54;;;;;;;0.30;0.25;;;18.50;47.20;;;;;;5012923;28;20037;-68
2022/11/16 04:59:21;;;;;;;2.05;0.32;;;18.70;47.20;;;;;;5015290;28;20022;-68
2022/11/16 05:04:41;;;;;;;3.08;0.40;;;18.80;46.60;;;;;;4997615;28;20079;-68
2022/11/16 05:07:10;;;;;;;7.78;0.50;;;18.70;47.00;;;;;;5004538;28;20425;-68
2022/11/16 05:09:43;;;;;;;18.52;1.23;;;18.60;47.10;;;;;;5004481;28;20033;-68
2022/11/16 05:12:19;;;;;;;31.48;3.53;;;18.30;47.30;;;;;;5002262;28;20112;-69
2022/11/16 05:14:47;;;;;;;0.95;0.40;;;17.50;47.20;;;;;;5007683;28;20053;-68
2022/11/16 05:17:15;;;;;;;13.13;0.80;;;16.80;47.80;;;;;;5009271;28;20030;-68
2022/11/16 05:22:28;;;;;;;0.77;0.30;;;16.70;49.10;;;;;;5009212;28;20444;-68
2022/11/16 05:24:55;;;;;;;2.30;0.65;;;17.00;50.10;;;;;;5015782;28;20033;-68
2022/11/16 05:27:27;;;;;;;1.70;0.30;;;17.10;49.50;;;;;;5013233;28;20105;-68
2022/11/16 05:29:54;;;;;;;6.40;0.50;;;16.90;49.90;;;;;;5010639;28;20041;-69
2022/11/16 05:32:22;;;;;;;0.40;0.20;;;16.50;50.10;;;;;;5014971;28;20056;-67
2022/11/16 05:34:50;;;;;;;0.32;0.30;;;16.30;49.70;;;;;;5020052;28;20025;-68
2022/11/16 05:37:19;;;;;;;0.65;0.52;;;16.20;50.60;;;;;;5007831;28;20505;-69
2022/11/16 05:39:47;;;;;;;0.30;0.30;;;16.10;51.40;;;;;;5007193;28;20081;-68
2022/11/16 05:42:15;;;;;;;1.75;0.38;;;16.00;51.00;;;;;;5012476;28;20375;-69
2022/11/16 05:44:42;;;;;;;5.07;0.65;;;15.90;51.90;;;;;;5020607;28;20072;-68
2022/11/16 05:47:09;;;;;;;3.83;0.68;;;15.90;52.20;;;;;;5008004;28;20038;-69
2022/11/16 05:49:37;;;;;;;2.25;0.40;;;16.20;51.90;;;;;;5010385;28;20032;-73
2022/11/16 05:52:04;;;;;;;1.08;0.20;;;16.40;45.50;;;;;;5014411;28;20101;-67
2022/11/16 05:54:31;;;;;;;0.30;0.30;;;16.70;42.30;;;;;;5014772;28;20539;-67
2022/11/16 05:56:58;;;;;;;2.80;0.40;;;17.30;42.90;;;;;;5011848;28;20084;-68
2022/11/16 05:59:26;;;;;;;1.65;0.40;;;18.00;45.90;;;;;;5015302;28;20130;-67
2022/11/16 06:01:57;;;;;;;3.00;0.65;;;18.40;46.10;;;;;;5011208;28;20557;-68
2022/11/16 06:04:24;;;;;;;3.72;0.70;;;18.50;44.30;;;;;;5011498;28;20026;-67
2022/11/16 06:06:51;;;;;;;1.00;0.40;;;18.40;45.40;;;;;;5016395;28;20777;-68
2022/11/16 06:09:19;;;;;;;2.63;0.40;;;18.70;46.80;;;;;;5010638;28;20574;-67
2022/11/16 06:11:46;;;;;;;1.27;0.40;;;18.80;45.80;;;;;;5026187;28;20018;-67
2022/11/16 06:14:13;;;;;;;1.38;0.40;;;18.90;45.80;;;;;;4996874;28;20034;-68
2022/11/16 06:16:40;;;;;;;2.17;0.30;;;19.20;45.50;;;;;;5014069;28;20107;-67
2022/11/16 06:19:08;;;;;;;0.43;0.30;;;19.20;43.10;;;;;;5006180;28;20121;-67
2022/11/16 06:21:35;;;;;;;3.15;0.95;;;19.30;44.60;;;;;;5009350;28;20021;-67
2022/11/16 06:24:07;;;;;;;1.27;0.40;;;19.40;44.90;;;;;;5013527;28;20131;-67
2022/11/16 06:26:35;;;;;;;5.85;0.50;;;19.50;43.70;;;;;;5014729;28;20163;-68
2022/11/16 06:29:03;;;;;;;7.13;0.85;;;19.40;42.10;;;;;;5020154;28;20029;-67
2022/11/16 06:31:30;;;;;;;2.50;0.52;;;19.30;43.10;;;;;;5023950;28;20077;-68
2022/11/16 06:33:58;;;;;;;3.17;0.35;;;19.40;43.80;;;;;;5012751;28;20483;-68
2022/11/16 06:36:25;;;;;;;2.75;0.40;;;19.40;43.20;;;;;;5009061;28;20021;-67
2022/11/16 06:38:52;;;;;;;4.63;0.40;;;19.20;43.90;;;;;;5011936;28;20156;-67
2022/11/16 06:41:20;;;;;;;2.03;0.50;;;19.20;44.70;;;;;;5018617;28;20032;-69
2022/11/16 06:43:47;;;;;;;1.13;0.40;;;19.20;43.70;;;;;;5019795;28;20053;-68
2022/11/16 06:46:14;;;;;;;0.38;0.30;;;19.20;43.90;;;;;;5011931;28;20022;-68
2022/11/16 06:48:41;;;;;;;2.13;0.60;;;19.20;43.40;;;;;;5017189;28;20037;-67
2022/11/16 06:51:09;;;;;;;0.77;0.30;;;19.20;43.20;;;;;;5013232;28;20430;-69
2022/11/16 06:53:36;;;;;;;3.15;0.77;;;19.30;44.10;;;;;;5024723;28;20057;-70
2022/11/16 06:56:05;;;;;;;3.60;0.93;;;19.20;49.80;;;;;;5013496;28;20688;-70
2022/11/16 06:58:32;;;;;;;3.00;0.50;;;19.20;52.80;;;;;;5009800;28;20183;-69
2022/11/16 07:01:11;;;;;;;3.45;1.20;;;19.10;54.00;;;;;;5012280;28;20014;-68
2022/11/16 07:03:38;;;;;;;2.50;0.40;;;19.00;53.30;;;;;;5021150;28;20049;-68
2022/11/16 07:06:10;;;;;;;3.00;0.57;;;19.10;53.40;;;;;;5012423;28;20108;-68
2022/11/16 07:08:41;;;;;;;1.27;0.55;;;19.20;52.10;;;;;;5016741;28;20022;-69
2022/11/16 07:11:10;;;;;;;1.92;0.60;;;18.80;52.80;;;;;;5019014;28;20163;-68
2022/11/16 07:13:38;;;;;;;3.42;0.90;;;18.80;53.20;;;;;;5017597;28;20018;-68
2022/11/16 07:16:10;;;;;;;1.45;0.47;;;18.50;53.10;;;;;;5011985;28;20038;-66
2022/11/16 07:18:39;;;;;;;1.35;0.68;;;18.40;52.70;;;;;;5008988;28;20552;-70
2022/11/16 07:21:12;;;;;;;1.58;0.40;;;18.50;53.80;;;;;;5010349;28;20581;-71
2022/11/16 07:23:40;;;;;;;2.30;0.57;;;18.30;56.90;;;;;;5007300;28;20041;-69
2022/11/16 07:26:08;;;;;;;3.20;0.98;;;17.80;58.00;;;;;;5007913;28;20105;-67
2022/11/16 07:28:36;;;;;;;2.97;0.50;;;17.20;59.10;;;;;;5010270;28;20541;-67
2022/11/16 07:31:05;;;;;;;2.08;0.70;;;16.90;60.60;;;;;;5016277;28;20059;-62
2022/11/16 07:33:33;;;;;;;2.28;0.73;;;16.60;62.10;;;;;;5012340;28;20046;-64
2022/11/16 07:36:08;;;;;;;5.43;0.47;;;16.40;62.00;;;;;;5014374;28;20368;-64
2022/11/16 07:38:36;;;;;;;4.10;0.80;;;16.20;64.10;;;;;;5010849;28;20044;-63
2022/11/16 07:41:05;;;;;;;3.85;0.60;;;16.00;64.30;;;;;;5009984;28;20140;-63
2022/11/16 07:43:36;;;;;;;3.90;1.02;;;15.90;65.00;;;;;;5008070;28;20034;-63
2022/11/16 07:46:05;;;;;;;3.55;0.60;;;15.80;65.60;;;;;;5013900;28;20037;-63
2022/11/16 07:48:32;;;;;;;1.45;0.40;;;15.70;65.90;;;;;;5016781;28;20017;-64
2022/11/16 07:51:06;;;;;;;1.70;0.70;;;15.60;65.80;;;;;;5019317;28;20053;-65
2022/11/16 07:53:34;;;;;;;1.98;0.60;;;15.50;67.00;;;;;;5023825;28;20066;-64
2022/11/16 07:56:01;;;;;;;1.40;0.63;;;15.40;68.40;;;;;;5013583;28;20037;-64
2022/11/16 07:58:32;;;;;;;2.00;0.95;;;15.30;69.20;;;;;;5014709;28;20037;-64
2022/11/16 08:01:13;;;;;;;5.40;1.08;;;15.30;68.70;;;;;;5019142;28;20044;-64
2022/11/16 08:03:42;;;;;;;8.05;1.10;;;15.20;69.20;;;;;;5015596;28;20034;-64
2022/11/16 08:06:16;;;;;;;0.88;0.40;;;15.10;69.30;;;;;;5025612;28;20049;-67
2022/11/16 08:08:43;;;;;;;4.95;0.55;;;15.00;68.90;;;;;;5011908;28;20424;-69
2022/11/16 08:11:12;;;;;;;3.55;0.63;;;14.90;71.30;;;;;;5009773;28;20025;-63
2022/11/16 08:13:41;;;;;;;3.45;0.55;;;14.80;72.30;;;;;;5024787;28;20036;-65
2022/11/16 08:16:17;;;;;;;1.95;0.50;;;14.70;73.50;;;;;;5012833;28;20055;-66
2022/11/16 08:18:45;;;;;;;1.80;0.70;;;14.60;74.30;;;;;;5008715;28;20026;-67
2022/11/16 08:21:15;;;;;;;4.95;1.00;;;14.50;75.50;;;;;;5013540;28;20033;-66
2022/11/16 08:23:43;;;;;;;4.15;0.70;;;14.50;74.80;;;;;;5010982;28;20045;-66
2022/11/16 08:26:14;;;;;;;2.63;0.45;;;14.40;75.60;;;;;;5020141;28;20022;-66
2022/11/16 08:28:46;;;;;;;1.17;0.45;;;14.40;75.50;;;;;;5007387;28;20048;-66
2022/11/16 08:31:19;;;;;;;1.63;0.65;;;14.30;76.20;;;;;;5010843;28;20026;-69
2022/11/16 08:33:47;;;;;;;2.25;0.70;;;14.30;76.40;;;;;;4997278;28;20026;-68
2022/11/16 08:36:17;;;;;;;3.45;0.80;;;14.30;75.90;;;;;;5005424;28;20442;-68
2022/11/16 08:38:46;;;;;;;6.95;0.80;;;14.30;75.80;;;;;;5017826;28;20478;-62
2022/11/16 08:41:13;;;;;;;1.55;0.50;;;14.30;77.40;;;;;;5016859;28;20428;-61
2022/11/16 08:43:41;;;;;;;5.00;0.60;;;14.30;79.00;;;;;;5001779;28;20087;-61
2022/11/16 08:46:13;;;;;;;6.72;1.52;;;14.30;80.60;;;;;;5023253;28;20030;-61
2022/11/16 08:48:40;;;;;;;2.92;0.40;;;14.20;79.90;;;;;;5010722;28;20340;-69
2022/11/16 08:51:11;;;;;;;3.55;0.40;;;14.20;81.00;;;;;;5017855;28;20092;-60
2022/11/16 08:53:38;;;;;;;4.93;0.70;;;14.10;81.00;;;;;;5015949;28;20057;-62
2022/11/16 08:56:08;;;;;;;1.08;0.47;;;14.10;82.30;;;;;;5012865;28;20055;-61
2022/11/16 08:58:36;;;;;;;2.88;0.50;;;14.00;83.60;;;;;;5010721;28;20026;-61
2022/11/16 09:01:11;;;;;;;1.23;0.43;;;13.80;90.50;;;;;;5012292;28;20125;-61
2022/11/16 09:03:37;;;;;;;;;;;13.50;90.50;;;;;;5012716;28;20046;-61
2022/11/16 09:06:06;;;;;;;0.38;0.30;;;13.20;92.10;;;;;;5011217;28;19960;-60
2022/11/16 09:08:35;;;;;;;5.00;0.63;;;12.90;92.00;;;;;;5010602;28;20037;-61
2022/11/16 09:11:07;;;;;;;2.25;0.52;;;12.70;91.70;;;;;;5018620;28;20026;-60
2022/11/16 09:13:34;;;;;;;2.30;0.40;;;12.60;91.80;;;;;;5004047;28;20100;-62
2022/11/16 09:16:02;;;;;;;1.10;0.55;;;12.40;91.80;;;;;;5007997;28;20041;-61
2022/11/16 09:18:30;;;;;;;2.75;1.13;;;12.30;92.20;;;;;;5010436;28;20378;-61
2022/11/16 09:20:58;;;;;;;4.65;0.50;;;12.20;90.30;;;;;;5014151;28;20036;-62
2022/11/16 09:23:25;;;;;;;2.40;0.85;;;12.20;90.70;;;;;;5012793;28;20060;-62
2022/11/16 09:25:52;;;;;;;0.90;0.40;;;12.20;90.40;;;;;;5005410;28;20038;-62
2022/11/16 09:28:21;;;;;;;0.47;0.20;;;12.30;89.00;;;;;;5012080;28;20021;-59
2022/11/16 09:30:50;;;;;;;2.85;0.52;;;12.30;89.10;;;;;;5010485;28;20153;-60
2022/11/16 09:33:18;;;;;;;0.80;0.55;;;12.30;90.20;;;;;;5008334;28;20205;-61
2022/11/16 09:35:45;;;;;;;1.80;0.75;;;12.30;88.90;;;;;;5005462;28;20736;-60
2022/11/16 09:38:13;;;;;;;0.98;0.40;;;12.20;91.10;;;;;;5000520;28;20026;-61
2022/11/16 09:40:44;;;;;;;1.60;0.77;;;12.10;91.40;;;;;;5030755;28;20034;-61
2022/11/16 09:43:40;;;;;;;1.95;0.68;;;11.90;91.60;;;;;;5003993;28;20049;-59
2022/11/16 09:46:25;;;;;;;0.88;0.80;;;11.80;91.80;;;;;;5029600;28;20112;-59
2022/11/16 09:48:57;;;;;;;0.65;0.40;;;11.60;92.20;;;;;;5018956;28;20030;-60
2022/11/16 09:51:31;;;;;;;2.20;0.63;;;11.40;92.40;;;;;;5015927;28;20061;-58
2022/11/16 09:54:02;;;;;;;3.40;0.70;;;11.30;92.70;;;;;;5023743;28;20040;-61
2022/11/16 09:56:36;;;;;;;0.95;0.52;;;11.20;93.20;;;;;;5013685;28;20026;-59
2022/11/16 09:59:22;;;;;;;1.30;0.60;;;11.10;93.60;;;;;;5024187;28;20109;-61
2022/11/16 10:01:59;;;;;;;2.45;0.68;;;11.20;94.20;;;;;;5009357;28;20093;-61
2022/11/16 10:05:15;;;;;;;0.50;0.45;;;11.20;94.50;;;;;;5015875;28;20044;-61
2022/11/16 10:07:47;;;;;;;1.17;0.47;;;11.20;94.50;;;;;;5004987;28;20042;-60
2022/11/16 10:10:17;;;;;;;2.78;0.70;;;11.30;94.70;;;;;;5009662;28;20071;-62
2022/11/16 10:12:57;;;;;;;2.45;0.50;;;11.30;94.90;;;;;;5016572;28;20033;-60
2022/11/16 10:15:49;;;;;;;0.90;0.43;;;11.40;94.70;;;;;;5011795;28;20026;-59
2022/11/16 10:18:31;;;;;;;2.83;0.40;;;11.50;94.40;;;;;;5006913;28;20534;-59
2022/11/16 10:21:07;;;;;;;2.17;0.50;;;11.60;93.90;;;;;;5012611;28;20037;-61
2022/11/16 10:23:57;;;;;;;2.22;0.85;;;11.70;93.50;;;;;;5007756;28;20183;-62
2022/11/16 10:26:41;;;;;;;2.55;0.75;;;11.70;93.50;;;;;;5007751;28;20022;-61
2022/11/16 10:29:36;;;;;;;3.08;0.80;;;11.80;93.40;;;;;;5009980;28;20029;-61
2022/11/16 10:32:08;;;;;;;1.95;0.50;;;11.80;93.20;;;;;;5009737;28;20403;-60
2022/11/16 10:34:55;;;;;;;1.92;0.80;;;11.90;92.70;;;;;;5014975;28;20022;-60
2022/11/16 10:37:30;;;;;;;2.10;1.25;;;11.90;92.50;;;;;;4992115;28;20072;-61
2022/11/16 10:39:58;;;;;;;2.13;0.60;;;11.90;92.40;;;;;;5024361;28;20029;-59
2022/11/16 10:42:38;;;;;;;1.80;0.60;;;11.90;92.10;;;;;;5002469;28;20025;-64
2022/11/16 10:45:24;;;;;;;0.38;0.30;;;11.90;92.20;;;;;;5018614;28;20068;-61
2022/11/16 10:48:03;;;;;;;2.67;1.85;;;11.90;92.20;;;;;;5017432;28;20398;-59
2022/11/16 10:50:38;;;;;;;2.65;0.40;;;11.90;91.50;;;;;;5027427;28;20101;-61
2022/11/16 10:53:06;;;;;;;0.70;0.30;;;11.90;91.50;;;;;;5020711;28;20560;-62
2022/11/16 10:55:33;;;;;;;1.55;0.40;;;11.80;91.90;;;;;;5009349;28;20124;-61
2022/11/16 10:58:05;;;;;;;3.17;0.43;;;11.80;91.90;;;;;;5019974;28;20496;-60
2022/11/16 11:00:52;;;;;;;0.93;0.35;;;11.80;91.70;;;;;;5024167;28;20053;-61
2022/11/16 11:03:30;;;;;;;1.55;0.52;;;11.80;91.00;;;;;;5017995;28;20042;-60
2022/11/16 11:05:59;;;;;;;2.58;0.93;;;11.70;90.70;;;;;;5026946;28;20029;-60
2022/11/16 11:08:29;;;;;;;2.20;0.52;;;11.60;91.30;;;;;;5014097;28;20536;-61
2022/11/16 11:14:15;;;;;;;3.60;0.60;;;11.40;92.00;;;;;;5026634;28;20036;-60
2022/11/16 11:16:43;;;;;;;2.72;0.43;;;11.30;92.40;;;;;;5017736;28;20025;-61
2022/11/16 11:19:24;;;;;;;3.55;0.40;;;11.10;93.10;;;;;;5019071;28;20022;-60
2022/11/16 11:21:59;;;;;;;2.22;0.52;;;11.00;93.50;;;;;;5026268;28;20021;-60
2022/11/16 11:24:27;;;;;;;1.92;0.73;;;10.90;94.30;;;;;;5024280;28;20041;-60
2022/11/16 11:26:58;;;;;;;1.98;0.60;;;11.00;94.40;;;;;;5020815;28;20105;-60
2022/11/16 11:29:34;;;;;;;1.77;0.63;;;11.00;94.90;;;;;;5018138;28;20508;-60
2022/11/16 11:32:12;;;;;;;1.58;0.50;;;11.00;94.60;;;;;;5021843;28;20053;-60
2022/11/16 11:34:44;;;;;;;0.57;0.40;;;11.00;94.70;;;;;;5023609;28;20433;-60
2022/11/16 11:37:22;;;;;;;3.30;0.45;;;11.00;94.90;;;;;;5021380;28;20026;-65
2022/11/16 11:40:05;;;;;;;0.82;0.50;;;11.10;94.70;;;;;;5021462;28;20030;-60
2022/11/16 11:42:33;;;;;;;2.80;0.50;;;11.20;94.50;;;;;;5021821;28;20109;-60
2022/11/16 11:45:08;;;;;;;0.65;0.32;;;11.20;94.20;;;;;;5018233;28;20080;-60
2022/11/16 11:48:02;;;;;;;1.02;0.47;;;11.20;93.50;;;;;;5028023;28;20474;-60
2022/11/16 11:50:53;;;;;;;1.02;0.40;;;11.10;93.90;;;;;;4997166;28;20034;-59
2022/11/16 11:53:23;;;;;;;1.80;0.60;;;11.10;93.40;;;;;;5004144;28;20560;-63
2022/11/16 11:55:58;;;;;;;1.73;0.50;;;11.00;94.00;;;;;;5006104;28;20053;-59
2022/11/16 11:58:38;;;;;;;3.92;0.60;;;10.80;94.00;;;;;;5009690;28;20034;-60
2022/11/16 12:01:37;;;;;;;2.35;0.93;;;10.70;95.20;;;;;;5002253;28;20120;-60
2022/11/16 12:04:08;;;;;;;3.67;0.93;;;10.70;95.60;;;;;;5003607;28;20034;-59
2022/11/16 12:06:43;;;;;;;4.60;0.80;;;10.70;96.00;;;;;;5012651;28;20037;-59
2022/11/16 12:09:28;;;;;;;10.48;1.10;;;10.80;96.50;;;;;;5008176;28;20076;-59
2022/11/16 12:12:20;;;;;;;3.35;1.20;;;10.90;96.80;;;;;;5008500;28;20480;-59
2022/11/16 12:14:55;;;;;;;4.40;1.73;;;10.90;96.80;;;;;;5014724;28;20029;-59
2022/11/16 12:18:04;;;;;;;3.38;0.80;;;11.00;97.00;;;;;;5009724;28;20029;-64
2022/11/16 12:20:52;;;;;;;2.70;1.17;;;11.10;97.10;;;;;;5014662;28;20025;-59
2022/11/16 12:23:19;;;;;;;3.42;1.25;;;11.10;97.20;;;;;;5010993;28;20052;-59
2022/11/16 12:26:01;;;;;;;4.68;0.80;;;11.10;97.30;;;;;;5019895;28;20024;-59
2022/11/16 12:28:42;;;;;;;4.70;1.00;;;11.10;97.30;;;;;;5001878;28;20030;-59
2022/11/16 12:31:19;;;;;;;2.67;1.98;;;11.10;97.70;;;;;;5013852;28;20125;-60
2022/11/16 12:33:55;;;;;;;3.10;0.93;;;11.00;97.80;;;;;;5009876;28;20092;-59
2022/11/16 12:36:42;;;;;;;1.67;0.73;;;11.00;98.10;;;;;;5007141;28;20029;-60
2022/11/16 12:39:34;;;;;;;5.50;0.82;;;10.90;98.40;;;;;;4996737;28;20101;-59
2022/11/16 12:42:16;;;;;;;5.88;0.93;;;10.90;98.70;;;;;;5009257;28;20030;-59
2022/11/16 12:45:04;;;;;;;2.85;1.20;;;10.90;99.10;;;;;;5004715;28;20048;-59
2022/11/16 12:47:34;;;;;;;0.93;0.30;;;10.90;98.90;;;;;;5010103;28;20106;-59
2022/11/16 12:50:37;;;;;;;4.38;0.57;;;10.90;98.70;;;;;;5013958;28;20180;-59
2022/11/16 12:53:51;;;;;;;1.40;0.60;;;11.00;99.30;;;;;;5017737;28;20072;-59
2022/11/16 12:56:48;;;;;;;2.90;0.98;;;11.00;98.40;;;;;;4975729;28;20037;-60
2022/11/16 12:59:30;;;;;;;1.63;0.60;;;10.90;98.40;;;;;;5010648;28;20033;-60
2022/11/16 13:02:04;;;;;;;2.45;0.75;;;10.80;98.00;;;;;;5014470;28;20156;-60
2022/11/16 13:04:40;;;;;;;4.93;0.70;;;10.60;97.70;;;;;;5022270;28;20053;-60
2022/11/16 13:07:29;;;;;;;0.85;0.60;;;10.50;97.70;;;;;;5010795;28;20022;-60
2022/11/16 13:10:06;;;;;;;0.63;0.40;;;10.20;98.00;;;;;;5010921;28;20030;-60
2022/11/16 13:12:35;;;;;;;1.92;0.60;;;10.00;98.50;;;;;;5007782;28;20054;-60
2022/11/16 13:15:03;;;;;;;0.82;0.55;;;9.80;98.80;;;;;;5006750;28;20029;-59
2022/11/16 13:17:37;;;;;;;1.58;0.57;;;9.70;99.40;;;;;;5010429;28;20174;-59
2022/11/16 13:20:17;;;;;;;1.67;0.60;;;9.50;99.40;;;;;;5008863;28;20026;-59
2022/11/16 13:22:55;;;;;;;2.70;0.82;;;9.30;99.90;;;;;;5015877;28;20027;-61
2022/11/16 13:25:42;;;;;;;2.25;0.60;;;9.20;99.90;;;;;;5012483;28;20034;-59
2022/11/16 13:28:30;;;;;;;2.25;0.75;;;9.20;99.90;;;;;;5012634;28;20490;-59
2022/11/16 13:31:31;;;;;;;2.65;0.70;;;9.30;99.90;;;;;;4997655;28;20018;-60
2022/11/16 13:34:04;;;;;;;2.60;0.65;;;9.20;99.90;;;;;;4999147;28;20185;-60
2022/11/16 13:36:44;;;;;;;2.63;0.73;;;9.10;99.90;;;;;;5022636;28;20486;-60
2022/11/16 13:39:17;;;;;;;2.05;0.80;;;9.00;99.90;;;;;;5015500;28;20315;-63
2022/11/16 13:41:50;;;;;;;8.23;0.98;;;9.00;99.90;;;;;;5022248;28;20053;-59
2022/11/16 13:44:22;;;;;;;11.95;1.83;;;8.90;99.90;;;;;;5012548;28;20075;-60
2022/11/16 13:46:55;;;;;;;11.82;1.20;;;8.90;99.90;;;;;;5018638;28;20025;-60
2022/11/16 13:49:41;;;;;;;8.40;0.82;;;8.80;99.90;;;;;;5012496;28;20037;-60
2022/11/16 13:52:11;;;;;;;7.68;1.58;;;8.70;99.90;;;;;;5014276;28;20505;-59
2022/11/16 13:54:49;;;;;;;4.45;1.25;;;8.60;99.90;;;;;;5015538;28;20026;-60
2022/11/16 13:57:27;;;;;;;6.15;1.00;;;8.50;99.90;;;;;;5021563;28;20727;-59
2022/11/16 14:00:10;;;;;;;5.20;0.80;;;8.40;99.90;;;;;;5011423;28;20050;-60
2022/11/16 14:02:40;;;;;;;6.05;0.77;;;8.40;99.90;;;;;;5011339;28;20113;-59
2022/11/16 14:05:36;;;;;;;2.63;1.00;;;8.40;99.90;;;;;;5016378;28;20038;-59
2022/11/16 14:08:19;;;;;;;3.65;0.90;;;8.30;99.90;;;;;;5012202;28;20499;-59
2022/11/16 14:10:49;;;;;;;7.65;1.08;;;8.30;99.90;;;;;;5016078;28;20037;-59
2022/11/16 14:13:35;;;;;;;3.95;1.20;;;8.20;99.90;;;;;;5016045;28;20036;-59
2022/11/16 14:16:20;;;;;;;1.98;0.93;;;8.20;99.90;;;;;;5014875;28;20512;-59